Time;durP1;ratioP1;P1;durP2;ratioP2;P2;SDS_P1;SDS_P2;PMS_P1;PMS_P2;Temp;Humidity;BMP_temperature;BMP_pressure;BME280_temperature;BME280_humidity;BME280_pressure;Samples;Min_cycle;Max_cycle;Signal;HPM_P1;HPM_P2
2023/12/20 00:02:10;;;;;;;0.60;0.30;;;7.00;23.60;;;;;;5134102;27;20444;-59
2023/12/20 00:04:37;;;;;;;0.47;0.25;;;7.00;27.30;;;;;;5137420;27;20438;-59
2023/12/20 00:07:05;;;;;;;0.60;0.30;;;7.00;25.70;;;;;;5138094;27;20829;-59
2023/12/20 00:09:33;;;;;;;0.40;0.20;;;7.00;26.50;;;;;;5135780;27;20510;-60
2023/12/20 00:12:00;;;;;;;0.50;0.30;;;7.00;27.70;;;;;;5137619;27;20414;-58
2023/12/20 00:14:27;;;;;;;0.50;0.30;;;7.10;28.90;;;;;;5135429;27;20854;-59
2023/12/20 00:16:54;;;;;;;0.80;0.30;;;7.10;28.00;;;;;;5137357;27;20462;-60
2023/12/20 00:19:21;;;;;;;0.80;0.20;;;7.10;25.40;;;;;;5136879;27;20436;-60
2023/12/20 00:21:48;;;;;;;0.45;0.30;;;7.00;30.70;;;;;;5137637;27;20441;-60
2023/12/20 00:24:16;;;;;;;0.60;0.30;;;7.00;38.30;;;;;;5136576;27;20493;-60
2023/12/20 00:26:44;;;;;;;0.60;0.20;;;7.00;40.40;;;;;;5135830;27;20457;-59
2023/12/20 00:29:11;;;;;;;0.70;0.28;;;7.00;45.20;;;;;;5139025;27;20422;-59
2023/12/20 00:31:38;;;;;;;0.50;0.30;;;7.00;47.60;;;;;;5133644;27;20729;-60
2023/12/20 00:34:06;;;;;;;0.60;0.30;;;6.90;56.10;;;;;;5138181;27;20418;-60
2023/12/20 00:36:33;;;;;;;0.50;0.20;;;6.90;67.50;;;;;;5119520;27;20882;-60
2023/12/20 00:39:00;;;;;;;0.50;0.27;;;6.90;74.40;;;;;;5130820;27;20514;-60
2023/12/20 00:41:27;;;;;;;0.50;0.30;;;6.90;83.60;;;;;;5124815;27;20483;-60
2023/12/20 00:43:56;;;;;;;0.60;0.30;;;6.80;93.70;;;;;;5131288;27;20423;-59
2023/12/20 00:46:23;;;;;;;0.50;0.30;;;6.80;98.90;;;;;;5136707;27;20414;-59
2023/12/20 00:48:50;;;;;;;0.50;0.30;;;6.80;99.90;;;;;;5129231;27;20426;-59
2023/12/20 00:51:17;;;;;;;0.90;0.30;;;6.70;99.90;;;;;;5132813;27;20826;-59
2023/12/20 00:53:44;;;;;;;0.50;0.20;;;6.70;99.90;;;;;;5125842;27;20422;-59
2023/12/20 00:56:11;;;;;;;0.60;0.30;;;6.70;99.90;;;;;;5127666;27;20427;-58
2023/12/20 00:58:38;;;;;;;0.50;0.30;;;6.70;99.90;;;;;;5133833;27;20857;-59
2023/12/20 01:01:07;;;;;;;0.50;0.30;;;6.70;99.90;;;;;;5136628;27;20435;-59
2023/12/20 01:03:34;;;;;;;1.10;0.30;;;6.60;99.90;;;;;;5135858;27;20477;-59
2023/12/20 01:06:01;;;;;;;0.40;0.20;;;6.60;99.90;;;;;;5135281;27;20433;-57
2023/12/20 01:08:28;;;;;;;0.40;0.20;;;6.60;99.90;;;;;;5135582;27;20423;-60
2023/12/20 01:10:55;;;;;;;0.40;0.20;;;6.50;99.90;;;;;;5135954;27;20434;-59
2023/12/20 01:13:22;;;;;;;0.45;0.20;;;6.60;99.90;;;;;;5135667;27;20442;-59
2023/12/20 01:15:49;;;;;;;0.50;0.22;;;6.50;99.90;;;;;;5135985;27;20430;-57
2023/12/20 01:18:18;;;;;;;0.50;0.30;;;6.50;99.90;;;;;;5136015;27;20433;-58
2023/12/20 01:20:45;;;;;;;0.60;0.30;;;6.50;99.90;;;;;;5134041;27;20430;-59
2023/12/20 01:23:13;;;;;;;0.70;0.30;;;6.40;99.90;;;;;;5134449;27;20456;-58
2023/12/20 01:25:41;;;;;;;0.50;0.30;;;6.50;99.90;;;;;;5136617;27;20432;-58
2023/12/20 01:28:08;;;;;;;0.50;0.20;;;6.40;99.90;;;;;;5136623;27;20430;-59
2023/12/20 01:30:35;;;;;;;0.47;0.20;;;6.30;99.90;;;;;;5137062;27;21058;-59
2023/12/20 01:33:02;;;;;;;0.50;0.30;;;6.30;99.90;;;;;;5137077;27;20722;-59
2023/12/20 01:35:30;;;;;;;0.60;0.20;;;6.30;99.90;;;;;;5136354;27;20698;-58
2023/12/20 01:37:58;;;;;;;0.40;0.20;;;6.30;99.90;;;;;;5136517;27;20433;-59
2023/12/20 01:40:25;;;;;;;0.50;0.30;;;6.30;99.90;;;;;;5137171;27;20517;-59
2023/12/20 01:43:00;;;;;;;0.70;0.20;;;6.30;99.90;;;;;;5135519;27;20930;-57
2023/12/20 01:45:27;;;;;;;0.63;0.20;;;6.30;99.90;;;;;;5135002;27;20439;-58
2023/12/20 01:47:55;;;;;;;0.50;0.28;;;6.30;99.90;;;;;;5136638;27;20429;-60
2023/12/20 01:50:23;;;;;;;0.50;0.20;;;6.30;99.90;;;;;;5134651;27;20501;-59
2023/12/20 01:52:53;;;;;;;0.38;0.20;;;6.30;99.90;;;;;;5135093;27;20449;-59
2023/12/20 01:55:20;;;;;;;1.00;0.30;;;6.30;99.90;;;;;;5134104;27;20819;-58
2023/12/20 01:57:48;;;;;;;0.40;0.20;;;6.30;99.90;;;;;;5136077;27;20410;-59
2023/12/20 02:00:16;;;;;;;0.70;0.25;;;6.40;99.90;;;;;;5134635;27;20487;-59
2023/12/20 02:02:45;;;;;;;0.50;0.20;;;6.40;99.90;;;;;;5135546;27;20411;-58
2023/12/20 02:05:13;;;;;;;0.60;0.28;;;6.30;99.90;;;;;;5136633;27;20418;-59
2023/12/20 02:07:40;;;;;;;0.50;0.20;;;6.30;99.90;;;;;;5136904;27;20713;-60
2023/12/20 02:10:09;;;;;;;0.60;0.30;;;6.20;99.90;;;;;;5135461;27;20434;-59
2023/12/20 02:12:36;;;;;;;0.93;0.30;;;6.30;99.90;;;;;;5136383;27;20849;-59
2023/12/20 02:15:04;;;;;;;0.50;0.30;;;6.30;99.90;;;;;;5135350;27;20422;-59
2023/12/20 02:17:32;;;;;;;0.60;0.30;;;6.30;99.90;;;;;;5135293;27;20414;-59
2023/12/20 02:19:59;;;;;;;0.70;0.30;;;6.30;99.90;;;;;;5135455;27;20437;-59
2023/12/20 02:22:28;;;;;;;1.20;0.30;;;6.30;99.90;;;;;;5135823;27;20524;-58
2023/12/20 02:24:55;;;;;;;1.03;0.30;;;6.30;99.90;;;;;;5135696;27;20429;-59
2023/12/20 02:27:24;;;;;;;0.90;0.30;;;6.40;99.90;;;;;;5136269;27;20414;-58
2023/12/20 02:29:51;;;;;;;0.50;0.20;;;6.40;99.90;;;;;;5136306;27;20418;-59
2023/12/20 02:32:20;;;;;;;0.50;0.20;;;6.30;99.90;;;;;;5136825;27;20449;-59
2023/12/20 02:34:49;;;;;;;0.50;0.20;;;6.40;99.90;;;;;;5135901;27;20429;-59
2023/12/20 02:37:16;;;;;;;1.30;0.25;;;6.50;99.90;;;;;;5136395;27;20445;-58
2023/12/20 02:39:44;;;;;;;0.50;0.20;;;6.50;99.90;;;;;;5135724;27;20437;-58
2023/12/20 02:42:11;;;;;;;0.40;0.20;;;6.50;99.90;;;;;;5136199;27;20410;-59
2023/12/20 02:44:38;;;;;;;0.50;0.20;;;6.50;99.90;;;;;;5134907;27;20437;-59
2023/12/20 02:47:05;;;;;;;0.40;0.20;;;6.50;99.90;;;;;;5135573;27;20442;-58
2023/12/20 02:49:33;;;;;;;0.50;0.20;;;6.50;99.90;;;;;;5135708;27;20414;-58
2023/12/20 02:52:00;;;;;;;0.40;0.20;;;6.40;99.90;;;;;;5135654;27;20833;-59
2023/12/20 02:54:27;;;;;;;0.40;0.20;;;6.50;99.90;;;;;;5135736;27;20418;-58
2023/12/20 02:56:55;;;;;;;0.40;0.20;;;6.50;99.90;;;;;;5135678;27;20787;-58
2023/12/20 02:59:22;;;;;;;0.50;0.22;;;6.50;99.90;;;;;;5135866;27;20430;-58
2023/12/20 03:01:49;;;;;;;0.60;0.20;;;6.50;99.90;;;;;;5135019;27;20418;-58
2023/12/20 03:04:16;;;;;;;0.30;0.20;;;6.50;99.90;;;;;;5135566;27;20418;-59
2023/12/20 03:06:43;;;;;;;0.60;0.20;;;6.60;99.90;;;;;;5135743;27;20425;-59
2023/12/20 03:09:10;;;;;;;0.50;0.20;;;6.60;99.90;;;;;;5135728;27;20406;-59
2023/12/20 03:11:37;;;;;;;0.40;0.20;;;6.60;99.90;;;;;;5135031;27;20410;-59
2023/12/20 03:14:06;;;;;;;0.70;0.20;;;6.60;99.90;;;;;;5135971;27;20855;-59
2023/12/20 03:16:33;;;;;;;0.50;0.20;;;6.60;99.90;;;;;;5135362;27;20430;-59
2023/12/20 03:19:00;;;;;;;0.45;0.20;;;6.60;99.90;;;;;;5135256;27;20435;-59
2023/12/20 03:21:27;;;;;;;0.30;0.20;;;6.70;99.90;;;;;;5134970;27;20434;-58
2023/12/20 03:23:54;;;;;;;0.47;0.20;;;6.70;99.90;;;;;;5134902;27;20417;-59
2023/12/20 03:26:22;;;;;;;0.40;0.20;;;6.70;99.90;;;;;;5135719;27;20419;-59
2023/12/20 03:28:49;;;;;;;0.60;0.20;;;6.70;99.90;;;;;;5135742;28;20418;-59
2023/12/20 03:31:17;;;;;;;0.40;0.20;;;6.70;99.90;;;;;;5135497;28;20461;-60
2023/12/20 03:33:45;;;;;;;0.30;0.10;;;6.80;99.90;;;;;;5135066;28;20415;-58
2023/12/20 03:36:12;;;;;;;0.40;0.10;;;6.80;99.90;;;;;;5135303;28;20493;-58
2023/12/20 03:38:39;;;;;;;0.80;0.10;;;6.80;99.90;;;;;;5135500;28;20893;-59
2023/12/20 03:41:06;;;;;;;0.38;0.10;;;6.70;99.90;;;;;;5135437;28;20859;-59
2023/12/20 03:43:33;;;;;;;0.30;0.10;;;6.80;99.90;;;;;;5134659;28;20743;-59
2023/12/20 03:46:00;;;;;;;0.30;0.10;;;6.70;99.90;;;;;;5134822;28;20426;-59
2023/12/20 03:48:29;;;;;;;0.30;0.10;;;6.70;99.90;;;;;;5133706;28;20426;-59
2023/12/20 03:50:56;;;;;;;0.40;0.10;;;6.60;99.90;;;;;;5134570;28;20438;-59
2023/12/20 03:53:23;;;;;;;0.30;0.10;;;6.60;99.90;;;;;;5134342;28;20425;-59
2023/12/20 03:55:50;;;;;;;0.30;0.10;;;6.60;99.90;;;;;;5134694;28;20411;-59
2023/12/20 03:58:17;;;;;;;0.30;0.10;;;6.70;99.90;;;;;;5134438;28;20479;-59
2023/12/20 04:00:44;;;;;;;0.30;0.10;;;6.70;99.90;;;;;;5134730;28;20445;-59
2023/12/20 04:03:13;;;;;;;0.30;0.10;;;6.80;99.90;;;;;;5135156;28;20822;-59
2023/12/20 04:05:41;;;;;;;0.30;0.10;;;6.70;99.90;;;;;;5134799;28;20410;-59
2023/12/20 04:08:09;;;;;;;0.30;0.10;;;6.60;99.90;;;;;;5135503;28;20422;-59
2023/12/20 04:10:37;;;;;;;0.30;0.10;;;6.60;99.90;;;;;;5134441;28;20415;-59
2023/12/20 04:13:04;;;;;;;0.40;0.10;;;6.50;99.90;;;;;;5135256;28;20426;-59
2023/12/20 04:15:31;;;;;;;0.30;0.10;;;6.50;99.90;;;;;;5134486;28;20418;-59
2023/12/20 04:17:58;;;;;;;0.30;0.10;;;6.40;99.90;;;;;;5135015;28;20410;-59
2023/12/20 04:20:25;;;;;;;0.30;0.10;;;6.30;99.90;;;;;;5134561;28;20434;-59
2023/12/20 04:22:54;;;;;;;0.30;0.10;;;6.30;99.90;;;;;;5135737;28;20410;-59
2023/12/20 04:25:21;;;;;;;0.50;0.10;;;6.40;99.90;;;;;;5134462;28;20425;-59
2023/12/20 04:27:48;;;;;;;0.30;0.10;;;6.50;99.90;;;;;;5134755;28;20422;-59
2023/12/20 04:30:15;;;;;;;0.30;0.10;;;6.60;99.90;;;;;;5135011;28;20406;-60
2023/12/20 04:32:42;;;;;;;0.30;0.10;;;6.60;99.90;;;;;;5134701;28;20421;-60
2023/12/20 04:35:09;;;;;;;0.30;0.10;;;6.60;99.90;;;;;;5134313;27;20418;-59
2023/12/20 04:37:36;;;;;;;0.30;0.10;;;6.60;99.90;;;;;;5138047;27;20417;-59
2023/12/20 04:40:07;;;;;;;0.30;0.10;;;6.60;99.90;;;;;;5137352;27;20433;-60
2023/12/20 04:42:34;;;;;;;0.30;0.10;;;6.60;99.90;;;;;;5137603;27;20418;-60
2023/12/20 04:45:01;;;;;;;0.40;0.10;;;6.50;99.90;;;;;;5136882;27;20468;-60
2023/12/20 04:47:28;;;;;;;0.30;0.10;;;6.30;99.90;;;;;;5137607;27;20418;-60
2023/12/20 04:49:56;;;;;;;0.30;0.10;;;6.20;99.90;;;;;;5138396;27;20443;-60
2023/12/20 04:52:23;;;;;;;0.30;0.10;;;6.10;99.90;;;;;;5138341;27;20422;-60
2023/12/20 04:54:50;;;;;;;0.30;0.10;;;6.10;99.90;;;;;;5137686;27;20746;-60
2023/12/20 04:57:19;;;;;;;0.30;0.10;;;6.10;99.90;;;;;;5138336;27;20962;-60
2023/12/20 04:59:46;;;;;;;0.30;0.10;;;6.10;99.90;;;;;;5137704;27;20429;-60
2023/12/20 05:02:13;;;;;;;1.23;0.10;;;6.10;99.90;;;;;;5136707;27;20537;-60
2023/12/20 05:04:40;;;;;;;0.30;0.10;;;6.10;99.90;;;;;;5137827;27;20423;-60
2023/12/20 05:07:07;;;;;;;0.30;0.10;;;6.10;99.90;;;;;;5137378;27;20414;-60
2023/12/20 05:09:34;;;;;;;0.30;0.10;;;6.20;99.90;;;;;;5136583;27;20426;-60
2023/12/20 05:12:01;;;;;;;0.30;0.10;;;6.20;99.90;;;;;;5136885;27;20437;-60
2023/12/20 05:14:30;;;;;;;0.30;0.10;;;6.30;99.90;;;;;;5137513;27;20467;-60
2023/12/20 05:16:57;;;;;;;0.30;0.10;;;6.30;99.90;;;;;;5136862;27;20720;-60
2023/12/20 05:19:24;;;;;;;0.30;0.10;;;6.30;99.90;;;;;;5137137;27;20434;-60
2023/12/20 05:21:51;;;;;;;0.30;0.10;;;6.40;99.90;;;;;;5137317;27;20423;-59
2023/12/20 05:24:18;;;;;;;0.30;0.10;;;6.40;99.90;;;;;;5136801;27;20433;-58
2023/12/20 05:26:46;;;;;;;0.30;0.10;;;6.70;99.90;;;;;;5136794;27;20415;-59
2023/12/20 05:29:13;;;;;;;0.30;0.10;;;6.70;99.90;;;;;;5136912;27;20511;-59
2023/12/20 05:31:41;;;;;;;0.30;0.10;;;6.80;99.90;;;;;;5136851;27;20422;-58
2023/12/20 05:34:08;;;;;;;1.05;0.10;;;6.60;99.90;;;;;;5136737;27;20536;-58
2023/12/20 05:36:35;;;;;;;0.30;0.10;;;6.50;99.90;;;;;;5136276;27;20414;-58
2023/12/20 05:39:03;;;;;;;0.30;0.10;;;6.60;99.90;;;;;;5135945;27;20817;-58
2023/12/20 05:41:30;;;;;;;0.30;0.10;;;6.50;99.90;;;;;;5135862;27;20509;-59
2023/12/20 05:43:57;;;;;;;0.30;0.10;;;6.40;99.90;;;;;;5136895;27;20425;-58
2023/12/20 05:46:24;;;;;;;0.30;0.10;;;6.40;99.90;;;;;;5137066;27;20475;-59
2023/12/20 05:48:53;;;;;;;0.30;0.10;;;6.40;99.90;;;;;;5135696;27;20418;-58
2023/12/20 05:51:20;;;;;;;0.30;0.10;;;6.50;99.90;;;;;;5135652;27;20433;-58
2023/12/20 05:53:49;;;;;;;0.30;0.10;;;6.60;99.90;;;;;;5135590;27;20405;-58
2023/12/20 05:56:16;;;;;;;0.30;0.10;;;6.70;99.90;;;;;;5135207;27;20453;-59
2023/12/20 05:58:44;;;;;;;0.30;0.10;;;6.60;99.90;;;;;;5134714;27;20433;-58
2023/12/20 06:01:11;;;;;;;0.30;0.10;;;6.40;99.90;;;;;;5134268;27;20503;-58
2023/12/20 06:03:42;;;;;;;0.40;0.10;;;6.30;99.90;;;;;;5135306;27;20423;-58
2023/12/20 06:06:12;;;;;;;0.30;0.10;;;6.30;99.90;;;;;;5133878;27;20418;-58
2023/12/20 06:08:39;;;;;;;0.30;0.10;;;6.50;99.90;;;;;;5135185;27;20501;-58
2023/12/20 06:11:06;;;;;;;0.30;0.10;;;6.60;99.90;;;;;;5136162;27;20426;-58
2023/12/20 06:13:34;;;;;;;0.30;0.10;;;6.60;99.90;;;;;;5136612;27;20427;-58
2023/12/20 06:16:01;;;;;;;0.30;0.10;;;6.70;99.90;;;;;;5136078;27;20418;-58
2023/12/20 06:18:28;;;;;;;0.30;0.10;;;6.60;99.90;;;;;;5135933;27;20422;-57
2023/12/20 06:20:56;;;;;;;0.30;0.10;;;6.50;99.90;;;;;;5133416;27;20438;-58
2023/12/20 06:23:24;;;;;;;0.40;0.10;;;6.60;99.90;;;;;;5135338;27;20454;-57
2023/12/20 06:25:52;;;;;;;0.30;0.10;;;6.50;99.90;;;;;;5132803;27;20541;-58
2023/12/20 06:28:19;;;;;;;0.40;0.10;;;6.50;99.90;;;;;;5133918;27;20434;-58
2023/12/20 06:30:49;;;;;;;0.30;0.10;;;6.60;99.90;;;;;;5134570;27;20418;-58
2023/12/20 06:33:18;;;;;;;0.30;0.10;;;6.50;99.90;;;;;;5133165;27;20434;-58
2023/12/20 06:35:45;;;;;;;0.30;0.10;;;6.70;99.90;;;;;;5130707;27;20419;-58
2023/12/20 06:38:12;;;;;;;0.40;0.10;;;6.90;99.90;;;;;;5133131;27;20423;-58
2023/12/20 06:40:44;;;;;;;0.40;0.10;;;7.10;99.90;;;;;;5135117;27;20838;-58
2023/12/20 06:43:11;;;;;;;0.40;0.20;;;7.00;99.90;;;;;;5135303;27;20525;-60
2023/12/20 06:45:38;;;;;;;0.40;0.10;;;6.90;99.90;;;;;;5133972;27;20427;-57
2023/12/20 06:48:06;;;;;;;0.35;0.10;;;6.90;99.90;;;;;;5132517;27;20422;-58
2023/12/20 06:50:33;;;;;;;0.30;0.10;;;6.80;99.90;;;;;;5133139;27;20864;-56
2023/12/20 06:53:06;;;;;;;0.40;0.20;;;6.80;99.90;;;;;;5135131;27;20425;-58
2023/12/20 06:55:33;;;;;;;0.40;0.10;;;6.60;99.90;;;;;;5134904;27;20837;-58
2023/12/20 06:58:02;;;;;;;0.30;0.10;;;6.90;99.90;;;;;;5134116;27;20965;-58
2023/12/20 07:00:29;;;;;;;1.30;0.10;;;6.80;99.90;;;;;;5134943;27;20431;-57
2023/12/20 07:02:56;;;;;;;0.70;0.10;;;7.10;99.90;;;;;;5135144;27;20466;-53
2023/12/20 07:05:23;;;;;;;0.40;0.10;;;7.30;99.90;;;;;;5134580;27;20418;-57
2023/12/20 07:07:50;;;;;;;1.10;0.20;;;7.30;99.90;;;;;;5134634;27;20418;-54
2023/12/20 07:10:17;;;;;;;0.40;0.10;;;7.30;99.90;;;;;;5135364;27;20410;-57
2023/12/20 07:12:45;;;;;;;0.30;0.10;;;7.20;99.90;;;;;;5135065;27;20513;-57
2023/12/20 07:15:13;;;;;;;1.20;0.20;;;7.10;99.90;;;;;;5134254;27;20419;-57
2023/12/20 07:17:40;;;;;;;0.40;0.10;;;7.10;99.90;;;;;;5132664;27;20432;-57
2023/12/20 07:20:11;;;;;;;0.40;0.10;;;7.10;99.90;;;;;;5131089;27;21293;-57
2023/12/20 07:22:38;;;;;;;0.45;0.20;;;7.00;99.90;;;;;;5135357;27;20441;-56
2023/12/20 07:25:07;;;;;;;0.47;0.20;;;7.00;99.90;;;;;;5132842;27;20493;-51
2023/12/20 07:27:34;;;;;;;0.40;0.20;;;7.10;99.90;;;;;;5131699;27;20446;-52
2023/12/20 07:30:02;;;;;;;0.80;0.20;;;7.30;99.90;;;;;;5130139;27;20877;-53
2023/12/20 07:32:32;;;;;;;0.93;0.20;;;7.20;99.90;;;;;;5131382;27;20422;-55
2023/12/20 07:34:59;;;;;;;0.40;0.20;;;7.10;99.90;;;;;;5131570;28;20582;-54
2023/12/20 07:37:26;;;;;;;0.45;0.20;;;7.00;99.90;;;;;;5131618;28;20419;-52
2023/12/20 07:39:53;;;;;;;0.40;0.20;;;6.90;99.90;;;;;;5133717;28;20759;-53
2023/12/20 07:42:21;;;;;;;0.40;0.20;;;7.00;99.90;;;;;;5133694;28;20859;-53
2023/12/20 07:44:48;;;;;;;0.52;0.30;;;7.00;99.90;;;;;;5133081;28;20410;-52
2023/12/20 07:47:19;;;;;;;0.60;0.30;;;7.10;99.90;;;;;;5133262;28;20422;-49
2023/12/20 07:49:47;;;;;;;0.70;0.32;;;6.90;99.90;;;;;;5132980;28;20462;-50
2023/12/20 07:52:14;;;;;;;0.60;0.30;;;6.80;99.90;;;;;;5134669;28;20414;-52
2023/12/20 07:54:42;;;;;;;0.60;0.40;;;6.70;99.90;;;;;;5133686;28;20534;-49
2023/12/20 07:57:10;;;;;;;0.80;0.40;;;6.80;99.90;;;;;;5116101;28;20706;-50
2023/12/20 07:59:37;;;;;;;0.70;0.40;;;6.70;99.90;;;;;;5119638;28;20423;-48
2023/12/20 08:02:04;;;;;;;0.80;0.40;;;6.70;99.90;;;;;;5131482;28;20426;-47
2023/12/20 08:04:32;;;;;;;0.67;0.40;;;6.60;99.90;;;;;;5125240;28;20414;-47
2023/12/20 08:07:01;;;;;;;1.10;0.38;;;6.70;99.90;;;;;;5131864;28;20457;-51
2023/12/20 08:09:28;;;;;;;0.60;0.40;;;6.80;99.90;;;;;;5132097;27;20465;-50
2023/12/20 08:11:55;;;;;;;0.73;0.40;;;7.10;99.90;;;;;;5135401;27;20457;-50
2023/12/20 08:14:23;;;;;;;0.70;0.40;;;7.30;99.90;;;;;;5135443;27;20417;-50
2023/12/20 08:16:50;;;;;;;0.65;0.40;;;7.50;99.90;;;;;;5134974;27;20839;-48
2023/12/20 08:19:17;;;;;;;0.70;0.40;;;7.40;99.90;;;;;;5135110;27;20422;-49
2023/12/20 08:21:44;;;;;;;0.80;0.40;;;7.10;99.90;;;;;;5133395;27;20426;-51
2023/12/20 08:24:13;;;;;;;1.10;0.40;;;6.90;99.90;;;;;;5134746;27;20432;-51
2023/12/20 08:26:39;;;;;;;0.80;0.40;;;6.90;99.90;;;;;;5135587;27;20406;-53
2023/12/20 08:29:06;;;;;;;0.75;0.40;;;6.90;99.90;;;;;;5133129;27;20441;-49
2023/12/20 08:31:34;;;;;;;0.83;0.40;;;7.10;99.90;;;;;;5127907;27;20453;-49
2023/12/20 08:34:01;;;;;;;0.60;0.40;;;7.00;95.90;;;;;;5133327;27;20469;-51
2023/12/20 08:36:28;;;;;;;1.50;0.40;;;6.80;99.90;;;;;;5136228;27;20433;-51
2023/12/20 08:38:55;;;;;;;0.60;0.30;;;6.80;96.10;;;;;;5134974;27;20458;-51
2023/12/20 08:41:23;;;;;;;0.60;0.40;;;6.70;95.40;;;;;;5134090;27;20914;-53
2023/12/20 08:43:50;;;;;;;0.60;0.32;;;6.60;99.90;;;;;;5134598;27;20457;-50
2023/12/20 08:46:17;;;;;;;0.60;0.35;;;6.60;99.90;;;;;;5134423;27;20498;-54
2023/12/20 08:48:45;;;;;;;0.80;0.40;;;6.70;84.20;;;;;;5135680;27;20466;-52
2023/12/20 08:51:16;;;;;;;0.60;0.40;;;6.70;99.90;;;;;;5135343;27;20410;-48
2023/12/20 08:53:45;;;;;;;1.10;0.40;;;6.90;89.90;;;;;;5131965;27;20426;-53
2023/12/20 08:56:12;;;;;;;1.00;0.50;;;6.70;94.80;;;;;;5134298;27;20496;-52
2023/12/20 08:58:40;;;;;;;1.27;0.40;;;6.60;99.90;;;;;;5130532;27;20441;-50
2023/12/20 09:01:07;;;;;;;1.10;0.40;;;6.60;98.40;;;;;;5131034;27;20717;-52
2023/12/20 09:03:34;;;;;;;0.70;0.40;;;6.50;99.90;;;;;;5131572;27;20428;-53
2023/12/20 09:06:02;;;;;;;0.90;0.50;;;6.30;99.90;;;;;;5125656;27;20879;-48
2023/12/20 09:08:29;;;;;;;1.70;0.50;;;6.40;99.90;;;;;;5120405;27;20994;-53
2023/12/20 09:10:56;;;;;;;0.90;0.50;;;6.40;99.90;;;;;;5130869;27;20874;-53
2023/12/20 09:13:27;;;;;;;0.87;0.50;;;6.30;99.90;;;;;;5134778;27;20434;-53
2023/12/20 09:15:56;;;;;;;0.90;0.50;;;6.30;99.90;;;;;;5133614;27;20466;-53
2023/12/20 09:18:23;;;;;;;2.00;0.50;;;6.30;99.90;;;;;;5131792;27;20431;-52
2023/12/20 09:20:50;;;;;;;0.65;0.40;;;6.30;99.90;;;;;;5129564;27;20868;-54
2023/12/20 09:23:18;;;;;;;1.30;0.50;;;6.70;99.90;;;;;;5131615;27;20431;-53
2023/12/20 09:25:45;;;;;;;0.73;0.40;;;6.80;99.90;;;;;;5128360;27;20445;-52
2023/12/20 09:28:12;;;;;;;1.30;0.40;;;6.70;99.90;;;;;;5124883;27;20442;-52
2023/12/20 09:30:39;;;;;;;0.70;0.40;;;6.60;99.00;;;;;;5116115;27;20438;-53
2023/12/20 09:33:08;;;;;;;0.70;0.40;;;6.60;99.90;;;;;;5117446;27;20975;-49
2023/12/20 09:35:36;;;;;;;0.70;0.50;;;6.70;99.90;;;;;;5128132;27;20441;-54
2023/12/20 09:38:03;;;;;;;0.55;0.30;;;6.80;99.90;;;;;;5128829;27;20442;-53
2023/12/20 09:40:31;;;;;;;0.70;0.40;;;7.10;99.90;;;;;;5130182;27;20439;-51
2023/12/20 09:42:59;;;;;;;0.90;0.40;;;7.20;51.90;;;;;;5123795;27;20438;-52
2023/12/20 09:45:27;;;;;;;1.30;0.30;;;7.20;57.40;;;;;;5129119;27;20437;-52
2023/12/20 09:47:55;;;;;;;1.90;0.30;;;7.40;29.60;;;;;;5114955;27;20529;-48
2023/12/20 09:50:23;;;;;;;0.70;0.30;;;7.30;1.00;;;;;;5129602;27;20449;-52
2023/12/20 09:52:52;;;;;;;0.80;0.40;;;7.00;1.00;;;;;;5135971;27;20442;-50
2023/12/20 09:55:20;;;;;;;1.90;0.60;;;7.00;1.00;;;;;;5131594;27;20438;-52
2023/12/20 09:57:47;;;;;;;0.70;0.40;;;7.20;1.00;;;;;;5130502;27;20520;-54
2023/12/20 10:00:15;;;;;;;0.68;0.28;;;7.40;1.00;;;;;;5127888;27;20433;-53
2023/12/20 10:02:51;;;;;;;0.90;0.30;;;7.50;1.00;;;;;;5130743;27;20437;-52
2023/12/20 10:05:19;;;;;;;1.10;0.30;;;7.50;1.00;;;;;;5114438;27;20455;-52
2023/12/20 10:07:48;;;;;;;1.20;0.30;;;7.60;1.00;;;;;;5130764;27;20678;-49
2023/12/20 10:10:15;;;;;;;1.10;0.40;;;7.70;1.00;;;;;;5126790;27;20754;-50
2023/12/20 10:13:03;;;;;;;1.48;0.40;;;7.90;1.00;;;;;;5130438;27;20439;-53
2023/12/20 10:15:30;;;;;;;1.50;0.30;;;7.90;1.00;;;;;;5123393;27;20446;-53
2023/12/20 10:17:58;;;;;;;0.60;0.30;;;7.70;1.00;;;;;;5131098;27;20434;-53
2023/12/20 10:20:25;;;;;;;0.80;0.30;;;7.50;99.90;;;;;;5128865;27;20471;-51
2023/12/20 10:22:54;;;;;;;0.50;0.30;;;7.50;1.00;;;;;;5127462;27;20541;-51
2023/12/20 10:25:22;;;;;;;1.27;0.30;;;7.60;1.00;;;;;;5116332;27;20510;-52
2023/12/20 10:27:51;;;;;;;0.40;0.20;;;7.60;1.00;;;;;;5115159;27;20501;-51
2023/12/20 10:30:18;;;;;;;0.60;0.30;;;7.60;70.20;;;;;;5126452;27;20467;-51
2023/12/20 10:32:45;;;;;;;0.60;0.30;;;7.80;99.90;;;;;;5129812;27;20857;-53
2023/12/20 10:35:12;;;;;;;1.30;0.30;;;8.00;99.90;;;;;;5130779;27;20823;-51
2023/12/20 10:37:39;;;;;;;0.70;0.30;;;8.00;99.90;;;;;;5125888;27;20820;-52
2023/12/20 10:40:10;;;;;;;0.80;0.30;;;8.00;6.80;;;;;;5124203;27;20750;-51
2023/12/20 10:42:38;;;;;;;1.00;0.30;;;7.90;99.90;;;;;;5112480;27;20461;-50
2023/12/20 10:45:06;;;;;;;0.80;0.30;;;7.60;1.00;;;;;;5113435;27;20442;-53
2023/12/20 10:47:34;;;;;;;0.60;0.30;;;7.70;1.00;;;;;;5112953;27;20427;-52
2023/12/20 10:50:02;;;;;;;0.80;0.30;;;7.40;1.00;;;;;;5123276;27;20442;-50
2023/12/20 10:52:30;;;;;;;0.50;0.30;;;7.30;99.90;;;;;;5112302;27;20434;-54
2023/12/20 10:54:57;;;;;;;0.73;0.30;;;7.40;1.00;;;;;;5130970;27;20442;-53
2023/12/20 10:57:29;;;;;;;1.10;0.40;;;7.60;99.90;;;;;;5129207;27;20441;-51
2023/12/20 11:00:02;;;;;;;0.97;0.30;;;7.80;93.60;;;;;;5132056;27;20410;-51
2023/12/20 11:02:33;;;;;;;0.80;0.30;;;7.70;1.00;;;;;;5127412;27;20841;-52
2023/12/20 11:05:09;;;;;;;1.20;0.30;;;7.40;99.90;;;;;;5131659;27;20442;-53
2023/12/20 11:07:41;;;;;;;1.60;0.30;;;7.50;1.00;;;;;;5132460;27;20502;-48
2023/12/20 11:10:18;;;;;;;1.38;0.30;;;7.60;1.00;;;;;;5115881;27;21572;-52
2023/12/20 11:12:52;;;;;;;0.52;0.30;;;7.50;99.90;;;;;;5114910;27;20451;-52
2023/12/20 11:15:20;;;;;;;0.70;0.30;;;7.50;99.90;;;;;;5116850;27;20442;-50
2023/12/20 11:17:47;;;;;;;0.60;0.30;;;7.50;99.90;;;;;;5120035;27;20733;-48
2023/12/20 11:20:15;;;;;;;0.75;0.30;;;7.50;99.90;;;;;;5124807;27;20421;-50
2023/12/20 11:22:54;;;;;;;0.60;0.30;;;7.40;1.00;;;;;;5126452;27;20427;-54
2023/12/20 11:25:21;;;;;;;1.20;0.30;;;7.40;99.90;;;;;;5128485;27;20525;-50
2023/12/20 11:28:11;;;;;;;2.90;0.40;;;7.60;1.00;;;;;;5123724;27;21123;-54
2023/12/20 11:30:49;;;;;;;1.10;0.30;;;7.70;99.90;;;;;;5128081;27;20443;-54
2023/12/20 11:33:16;;;;;;;0.73;0.30;;;7.40;98.20;;;;;;5132162;28;20450;-53
2023/12/20 11:35:43;;;;;;;1.23;0.40;;;7.60;99.90;;;;;;5130621;28;20806;-49
2023/12/20 11:38:10;;;;;;;1.20;0.40;;;7.70;1.00;;;;;;5131431;28;20434;-52
2023/12/20 11:40:38;;;;;;;1.00;0.30;;;7.70;1.00;;;;;;5127015;27;20437;-52
2023/12/20 11:43:06;;;;;;;1.10;0.40;;;7.50;99.90;;;;;;5128260;27;20496;-53
2023/12/20 11:45:35;;;;;;;1.50;0.50;;;7.60;99.90;;;;;;5128535;27;20895;-54
2023/12/20 11:48:03;;;;;;;0.80;0.30;;;7.80;99.90;;;;;;5134519;27;20849;-53
2023/12/20 11:50:31;;;;;;;1.10;0.30;;;7.50;1.00;;;;;;5128926;27;20437;-51
2023/12/20 11:52:58;;;;;;;1.60;0.30;;;7.40;10.90;;;;;;5134896;27;20429;-53
2023/12/20 11:55:25;;;;;;;0.50;0.25;;;7.40;99.90;;;;;;5132960;27;20445;-53
2023/12/20 11:57:53;;;;;;;0.50;0.30;;;7.40;99.90;;;;;;5134862;27;20425;-55
2023/12/20 12:00:21;;;;;;;0.40;0.20;;;7.20;1.00;;;;;;5132691;27;20736;-54
2023/12/20 12:03:01;;;;;;;0.90;0.20;;;7.20;95.10;;;;;;5136680;27;20459;-53
2023/12/20 12:05:28;;;;;;;1.30;0.30;;;7.00;1.00;;;;;;5130389;27;20486;-51
2023/12/20 12:07:55;;;;;;;0.55;0.30;;;7.00;99.90;;;;;;5135195;27;20426;-52
2023/12/20 12:10:23;;;;;;;0.90;0.30;;;7.10;99.90;;;;;;5131787;27;20434;-53
2023/12/20 12:12:50;;;;;;;2.23;0.40;;;7.10;2.60;;;;;;5134326;27;20430;-52
2023/12/20 12:15:17;;;;;;;1.00;0.40;;;7.30;1.00;;;;;;5129546;27;20434;-53
2023/12/20 12:17:44;;;;;;;2.00;0.30;;;7.30;99.90;;;;;;5135594;27;20422;-54
2023/12/20 12:20:13;;;;;;;2.30;0.30;;;7.60;99.90;;;;;;5132302;27;20438;-53
2023/12/20 12:22:40;;;;;;;1.40;0.38;;;7.60;1.00;;;;;;5134016;27;20749;-52
2023/12/20 12:25:12;;;;;;;1.10;0.30;;;7.70;99.90;;;;;;5129275;27;20426;-53
2023/12/20 12:27:41;;;;;;;1.10;0.30;;;7.60;1.00;;;;;;5133668;27;20426;-54
2023/12/20 12:30:13;;;;;;;1.30;0.40;;;7.60;1.00;;;;;;5132025;27;20441;-53
2023/12/20 12:32:41;;;;;;;3.20;0.35;;;7.50;1.00;;;;;;5132792;27;20426;-54
2023/12/20 12:35:10;;;;;;;1.02;0.40;;;7.40;1.00;;;;;;5131995;27;20438;-55
2023/12/20 12:37:40;;;;;;;0.75;0.30;;;7.30;1.00;;;;;;5130815;27;20494;-54
2023/12/20 12:40:10;;;;;;;1.50;0.38;;;7.20;1.00;;;;;;5127988;27;20527;-50
2023/12/20 12:42:38;;;;;;;0.60;0.30;;;7.50;99.90;;;;;;5131780;27;20931;-53
2023/12/20 12:45:06;;;;;;;0.50;0.30;;;7.60;1.00;;;;;;5131319;27;20517;-53
2023/12/20 12:47:33;;;;;;;1.70;0.40;;;7.70;1.00;;;;;;5133731;27;20422;-52
2023/12/20 12:50:01;;;;;;;0.70;0.30;;;7.50;1.10;;;;;;5130720;27;20434;-52
2023/12/20 12:52:28;;;;;;;0.60;0.30;;;7.50;1.00;;;;;;5133584;27;20430;-51
2023/12/20 12:54:56;;;;;;;0.93;0.30;;;7.60;99.90;;;;;;5129786;27;20429;-51
2023/12/20 12:57:23;;;;;;;2.40;0.30;;;7.50;99.90;;;;;;5128338;27;20441;-53
2023/12/20 12:59:51;;;;;;;1.00;0.40;;;7.40;1.00;;;;;;5128788;27;20849;-52
2023/12/20 13:02:18;;;;;;;0.90;0.30;;;7.70;99.90;;;;;;5131258;27;20430;-53